Terminal Aerodrome Forecast
Issued by NWS

Home | Current Version | Previous Version | Graphics & Text | Print | Product List | Glossary On
Versions: 1 2 3 4 5 6 7 8 9 10 11 12 13 14 15 16 17 18 19 20 21 22 23 24
058
FTUS43 KLOT 172055 AAA
TAFMDW
TAF AMD
KMDW 172055Z 1721/1818 21012G19KT P6SM SKC
     FM180000 21012KT P6SM SKC
     FM180500 23010KT P6SM SKC WS008/25045KT
     FM181000 25008KT P6SM FEW250=

USA.gov is the U.S. government's official web portal to all federal, state and local government web resources and services.